createdAt,value
2023-05-15T00:00:11.149Z,17.58
2023-05-15T00:02:39.148Z,17.60
2023-05-15T00:05:08.291Z,17.56
2023-05-15T00:07:36.521Z,17.53
2023-05-15T00:10:04.138Z,17.50
2023-05-15T00:12:31.434Z,17.47
2023-05-15T00:14:58.615Z,17.46
2023-05-15T00:17:26.513Z,17.45
2023-05-15T00:19:58.064Z,17.42
2023-05-15T00:22:26.665Z,17.41
2023-05-15T00:24:53.900Z,17.39
2023-05-15T00:27:21.389Z,17.40
2023-05-15T00:29:48.638Z,17.39
2023-05-15T00:32:16.123Z,17.39
2023-05-15T00:34:43.460Z,17.38
2023-05-15T00:37:10.654Z,17.37
2023-05-15T00:39:37.818Z,17.33
2023-05-15T00:42:06.758Z,17.25
2023-05-15T00:44:35.019Z,17.21
2023-05-15T00:47:04.323Z,17.20
2023-05-15T00:49:33.081Z,17.17
2023-05-15T00:52:04.098Z,17.10
2023-05-15T00:54:31.301Z,17.06
2023-05-15T00:56:59.928Z,17.05
2023-05-15T00:59:29.261Z,16.98
2023-05-15T01:01:56.569Z,16.92
2023-05-15T01:04:24.004Z,16.89
2023-05-15T01:06:54.294Z,16.88
2023-05-15T01:09:25.110Z,16.87
2023-05-15T01:11:55.229Z,16.87
2023-05-15T01:14:22.487Z,16.85
2023-05-15T01:16:50.068Z,16.80
2023-05-15T01:19:17.521Z,16.75
2023-05-15T01:22:06.529Z,16.67
2023-05-15T01:24:53.987Z,16.61
2023-05-15T01:27:25.670Z,16.54
2023-05-15T01:29:56.770Z,16.51
2023-05-15T01:32:35.170Z,16.49
2023-05-15T01:35:12.511Z,16.44
2023-05-15T01:37:50.244Z,16.45
2023-05-15T01:40:21.949Z,16.44
2023-05-15T01:42:56.445Z,16.40
2023-05-15T01:45:25.997Z,16.42
2023-05-15T01:47:56.453Z,16.41
2023-05-15T01:50:24.200Z,16.37
2023-05-15T01:52:54.706Z,16.34
2023-05-15T01:55:24.876Z,16.30
2023-05-15T01:57:53.171Z,16.26
2023-05-15T02:00:22.571Z,16.19
2023-05-15T02:02:50.453Z,16.09
2023-05-15T02:05:19.330Z,16.07
2023-05-15T02:07:47.487Z,16.03
2023-05-15T02:10:15.977Z,15.99
2023-05-15T02:12:43.965Z,15.96
2023-05-15T02:15:11.944Z,15.93
2023-05-15T02:17:39.549Z,15.87
2023-05-15T02:20:08.453Z,15.84
2023-05-15T02:22:35.860Z,15.83
2023-05-15T02:25:03.162Z,15.83
2023-05-15T02:27:38.691Z,15.85
2023-05-15T02:30:16.945Z,15.84
2023-05-15T02:32:55.818Z,15.83
2023-05-15T02:35:29.261Z,15.79
2023-05-15T02:37:58.629Z,15.70
2023-05-15T02:40:27.864Z,15.62
2023-05-15T02:42:56.047Z,15.56
2023-05-15T02:45:25.148Z,15.51
2023-05-15T02:47:53.768Z,15.49
2023-05-15T02:50:21.421Z,15.44
2023-05-15T02:52:48.592Z,15.42
2023-05-15T02:55:15.964Z,15.42
2023-05-15T02:57:43.186Z,15.41
2023-05-15T03:00:13.795Z,15.43
2023-05-15T03:02:41.060Z,15.44
2023-05-15T03:05:08.996Z,15.46
2023-05-15T03:07:36.322Z,15.47
2023-05-15T03:10:03.708Z,15.50
2023-05-15T03:12:30.864Z,15.48
2023-05-15T03:14:58.154Z,15.45
2023-05-15T03:17:25.341Z,15.45
2023-05-15T03:19:52.595Z,15.43
2023-05-15T03:22:19.938Z,15.40
2023-05-15T03:24:47.152Z,15.38
2023-05-15T03:27:14.365Z,15.33
2023-05-15T03:29:43.324Z,15.19
2023-05-15T03:32:10.831Z,15.08
2023-05-15T03:34:40.950Z,14.90
2023-05-15T03:37:08.408Z,14.87
2023-05-15T03:39:35.584Z,14.76
2023-05-15T03:42:03.202Z,14.73
2023-05-15T03:44:30.529Z,14.68
2023-05-15T03:46:57.940Z,14.65
2023-05-15T03:49:25.234Z,14.66
2023-05-15T03:51:52.821Z,14.65
2023-05-15T03:54:20.168Z,14.65
2023-05-15T03:56:47.410Z,14.62
2023-05-15T03:59:14.666Z,14.60
2023-05-15T04:01:59.334Z,14.59
2023-05-15T04:04:29.107Z,14.59
2023-05-15T04:06:56.427Z,14.57
2023-05-15T04:09:23.746Z,14.55
2023-05-15T04:11:51.005Z,14.55
2023-05-15T04:14:18.138Z,14.57
2023-05-15T04:16:45.463Z,14.53
2023-05-15T04:19:12.833Z,14.52
2023-05-15T04:21:40.122Z,14.54
2023-05-15T04:24:08.700Z,14.49
2023-05-15T04:26:36.880Z,14.45
2023-05-15T04:29:04.890Z,14.41
2023-05-15T04:31:32.580Z,14.37
2023-05-15T04:33:59.904Z,14.30
2023-05-15T04:36:27.489Z,14.28
2023-05-15T04:38:54.831Z,14.26
2023-05-15T04:41:22.668Z,14.23
2023-05-15T04:43:50.084Z,14.21
2023-05-15T04:46:17.294Z,14.18
2023-05-15T04:48:44.515Z,14.15
2023-05-15T04:51:12.584Z,14.12
2023-05-15T04:53:39.953Z,14.08
2023-05-15T04:56:07.476Z,14.05
2023-05-15T04:58:34.728Z,13.95
2023-05-15T05:01:04.113Z,13.91
2023-05-15T05:03:31.806Z,13.90
2023-05-15T05:05:59.155Z,13.82
2023-05-15T05:08:26.516Z,13.80
2023-05-15T05:10:57.827Z,13.81
2023-05-15T05:13:25.071Z,13.78
2023-05-15T05:15:52.482Z,13.79
2023-05-15T05:18:19.780Z,13.77
2023-05-15T05:20:48.096Z,13.77
2023-05-15T05:23:15.671Z,13.76
2023-05-15T05:25:43.165Z,13.76
2023-05-15T05:28:10.392Z,13.70
2023-05-15T05:30:37.576Z,13.68
2023-05-15T05:33:04.846Z,13.70
2023-05-15T05:35:32.506Z,13.70
2023-05-15T05:37:59.832Z,13.69
2023-05-15T05:40:27.167Z,13.70
2023-05-15T05:42:54.871Z,13.67
2023-05-15T05:45:22.340Z,13.68
2023-05-15T05:47:49.709Z,13.66
2023-05-15T05:50:17.255Z,13.66
2023-05-15T05:52:44.638Z,13.68
2023-05-15T05:55:12.365Z,13.66
2023-05-15T05:57:39.626Z,13.64
2023-05-15T06:00:11.177Z,13.63
2023-05-15T06:02:39.620Z,13.65
2023-05-15T06:05:08.956Z,13.69
2023-05-15T06:07:36.436Z,13.65
2023-05-15T06:10:04.469Z,13.64
2023-05-15T06:12:31.978Z,13.59
2023-05-15T06:14:59.296Z,13.60
2023-05-15T06:17:26.559Z,13.57
2023-05-15T06:19:54.999Z,13.57
2023-05-15T06:22:22.359Z,13.58
2023-05-15T06:24:49.713Z,13.55
2023-05-15T06:27:17.286Z,13.54
2023-05-15T06:29:44.620Z,13.52
2023-05-15T06:32:12.039Z,13.55
2023-05-15T06:34:39.303Z,13.58
2023-05-15T06:37:06.569Z,13.60
2023-05-15T06:39:33.832Z,13.63
2023-05-15T06:42:01.883Z,13.65
2023-05-15T06:44:31.670Z,13.65
2023-05-15T06:46:59.475Z,13.71
2023-05-15T06:49:28.091Z,13.78
2023-05-15T06:51:55.961Z,13.79
2023-05-15T06:54:23.521Z,13.81
2023-05-15T06:56:51.179Z,13.79
2023-05-15T06:59:18.705Z,13.84
2023-05-15T07:01:46.096Z,13.90
2023-05-15T07:04:16.345Z,13.90
2023-05-15T07:06:43.903Z,13.96
2023-05-15T07:09:11.538Z,14.03
2023-05-15T07:11:39.321Z,14.06
2023-05-15T07:14:07.324Z,14.10
2023-05-15T07:16:34.662Z,14.14
2023-05-15T07:19:02.274Z,14.23
2023-05-15T07:21:29.727Z,14.28
2023-05-15T07:23:57.375Z,14.31
2023-05-15T07:26:34.393Z,14.34
2023-05-15T07:29:05.893Z,14.46
2023-05-15T07:31:34.023Z,14.51
2023-05-15T07:34:01.565Z,14.72
2023-05-15T07:36:28.850Z,15.08
2023-05-15T07:38:56.389Z,15.48
2023-05-15T07:41:23.716Z,15.70
2023-05-15T07:43:51.308Z,15.85
2023-05-15T07:46:18.867Z,15.92
2023-05-15T07:48:46.479Z,16.17
2023-05-15T07:51:14.211Z,16.33
2023-05-15T07:53:41.702Z,16.17
2023-05-15T07:56:09.142Z,15.94
2023-05-15T07:58:38.730Z,15.24
2023-05-15T08:01:09.219Z,15.10
2023-05-15T08:03:36.816Z,15.06
2023-05-15T08:06:04.424Z,15.13
2023-05-15T08:08:32.112Z,15.21
2023-05-15T08:11:00.053Z,15.43
2023-05-15T08:13:27.403Z,15.53
2023-05-15T08:15:54.642Z,15.53
2023-05-15T08:18:22.246Z,15.52
2023-05-15T08:20:52.007Z,15.48
2023-05-15T08:23:19.580Z,15.39
2023-05-15T08:25:46.784Z,15.35
2023-05-15T08:28:14.381Z,15.29
2023-05-15T08:30:44.489Z,15.32
2023-05-15T08:33:12.026Z,15.27
2023-05-15T08:35:39.504Z,15.26
2023-05-15T08:38:07.357Z,15.15
2023-05-15T08:40:39.432Z,15.12
2023-05-15T08:43:15.554Z,15.12
2023-05-15T08:45:44.203Z,15.09
2023-05-15T08:48:16.549Z,15.02
2023-05-15T08:50:46.192Z,14.88
2023-05-15T08:53:14.852Z,14.69
2023-05-15T08:55:42.878Z,14.72
2023-05-15T08:58:10.477Z,14.78
2023-05-15T09:00:38.065Z,14.85
2023-05-15T09:03:06.139Z,15.01
2023-05-15T09:05:33.832Z,15.25
2023-05-15T09:08:04.638Z,15.55
2023-05-15T09:10:33.198Z,15.71
2023-05-15T09:13:02.724Z,15.79
2023-05-15T09:15:30.956Z,15.73
2023-05-15T09:17:58.913Z,15.68
2023-05-15T09:20:28.734Z,15.59
2023-05-15T09:22:57.388Z,15.53
2023-05-15T09:25:30.954Z,15.39
2023-05-15T09:27:58.357Z,15.37
2023-05-15T09:30:27.793Z,15.30
2023-05-15T09:33:01.022Z,15.31
2023-05-15T09:35:30.453Z,15.39
2023-05-15T09:38:01.004Z,15.40
2023-05-15T09:40:31.488Z,15.43
2023-05-15T09:43:00.006Z,15.46
2023-05-15T09:45:30.478Z,15.51
2023-05-15T09:48:01.420Z,15.52
2023-05-15T09:50:35.051Z,15.52
2023-05-15T09:53:03.067Z,15.55
2023-05-15T09:55:36.554Z,15.58
2023-05-15T09:58:07.430Z,15.61
2023-05-15T10:00:35.963Z,15.65
2023-05-15T10:03:04.966Z,15.64
2023-05-15T10:05:43.111Z,15.71
2023-05-15T10:08:12.285Z,15.77
2023-05-15T10:10:40.017Z,15.75
2023-05-15T10:13:10.280Z,15.83
2023-05-15T10:15:38.887Z,15.85
2023-05-15T10:18:07.896Z,15.83
2023-05-15T10:20:36.182Z,15.82
2023-05-15T10:23:06.939Z,15.75
2023-05-15T10:25:40.378Z,15.67
2023-05-15T10:28:10.566Z,15.72
2023-05-15T10:30:38.673Z,15.69
2023-05-15T10:33:07.244Z,15.74
2023-05-15T10:35:35.665Z,15.68
2023-05-15T10:38:05.935Z,15.69
2023-05-15T10:40:37.040Z,15.77
2023-05-15T10:43:05.463Z,15.82
2023-05-15T10:45:34.289Z,15.75
2023-05-15T10:48:03.270Z,15.58
2023-05-15T10:50:30.998Z,15.66
2023-05-15T10:52:58.443Z,15.71
2023-05-15T10:55:25.874Z,15.73
2023-05-15T10:57:54.065Z,15.76
2023-05-15T11:00:23.713Z,15.80
2023-05-15T11:03:08.274Z,15.80
2023-05-15T11:05:58.552Z,15.63
2023-05-15T11:08:27.861Z,15.47
2023-05-15T11:10:59.223Z,15.58
2023-05-15T11:13:27.326Z,15.71
2023-05-15T11:15:54.810Z,15.85
2023-05-15T11:18:22.340Z,15.92
2023-05-15T11:20:54.964Z,16.05
2023-05-15T11:23:23.430Z,16.20
2023-05-15T11:25:55.808Z,16.20
2023-05-15T11:28:24.974Z,16.16
2023-05-15T11:30:55.144Z,16.11
2023-05-15T11:33:22.657Z,16.14
2023-05-15T11:35:58.846Z,16.17
2023-05-15T11:38:27.251Z,16.25
2023-05-15T11:41:08.895Z,16.30
2023-05-15T11:43:37.064Z,16.25
2023-05-15T11:46:05.620Z,16.29
2023-05-15T11:48:34.763Z,16.33
2023-05-15T11:51:16.260Z,16.41
2023-05-15T11:53:44.730Z,16.33
2023-05-15T11:56:19.382Z,16.25
2023-05-15T11:58:50.154Z,16.16
2023-05-15T12:01:17.999Z,16.02
2023-05-15T12:03:48.461Z,15.79
2023-05-15T12:06:16.856Z,15.79
2023-05-15T12:08:44.540Z,15.93
2023-05-15T12:11:13.256Z,15.97
2023-05-15T12:13:40.970Z,15.83
2023-05-15T12:16:08.730Z,15.80
2023-05-15T12:18:36.522Z,15.72
2023-05-15T12:21:06.852Z,15.80
2023-05-15T12:23:34.559Z,15.93
2023-05-15T12:26:04.083Z,16.03
2023-05-15T12:28:36.917Z,16.12
2023-05-15T12:31:15.169Z,16.26
2023-05-15T12:33:43.190Z,16.35
2023-05-15T12:36:11.227Z,16.40
2023-05-15T12:38:40.182Z,16.12
2023-05-15T12:41:24.233Z,16.12
2023-05-15T12:43:52.640Z,16.01
2023-05-15T12:46:25.070Z,16.02
2023-05-15T12:48:52.802Z,16.16
2023-05-15T12:51:23.521Z,16.31
2023-05-15T12:53:53.749Z,16.44
2023-05-15T12:56:22.014Z,16.50
2023-05-15T12:58:50.024Z,16.53
2023-05-15T13:01:18.247Z,16.48
2023-05-15T13:03:46.239Z,16.44
2023-05-15T13:06:13.886Z,16.42
2023-05-15T13:08:45.705Z,16.40
2023-05-15T13:11:25.224Z,16.34
2023-05-15T13:13:54.017Z,16.20
2023-05-15T13:16:25.063Z,16.23
2023-05-15T13:18:54.150Z,16.42
2023-05-15T13:21:27.929Z,16.51
2023-05-15T13:23:55.758Z,16.50
2023-05-15T13:26:23.347Z,16.51
2023-05-15T13:28:50.948Z,16.49
2023-05-15T13:31:18.678Z,16.53
2023-05-15T13:33:46.780Z,16.56
2023-05-15T13:36:14.643Z,16.58
2023-05-15T13:38:42.291Z,16.54
2023-05-15T13:41:10.637Z,16.54
2023-05-15T13:43:38.311Z,16.58
2023-05-15T13:46:06.255Z,16.76
2023-05-15T13:48:34.155Z,16.86
2023-05-15T13:51:11.841Z,16.95
2023-05-15T13:53:40.014Z,17.06
2023-05-15T13:56:07.907Z,17.10
2023-05-15T13:58:35.411Z,17.05
2023-05-15T14:01:17.216Z,17.02
2023-05-15T14:03:45.855Z,16.93
2023-05-15T14:06:14.014Z,16.94
2023-05-15T14:08:41.919Z,16.89
2023-05-15T14:11:09.587Z,16.90
2023-05-15T14:13:37.552Z,16.77
2023-05-15T14:16:05.770Z,16.60
2023-05-15T14:18:33.484Z,16.72
2023-05-15T14:21:11.902Z,16.85
2023-05-15T14:23:39.622Z,17.04
2023-05-15T14:26:07.009Z,17.07
2023-05-15T14:28:35.028Z,17.00
2023-05-15T14:31:07.699Z,16.90
2023-05-15T14:33:35.317Z,16.85
2023-05-15T14:36:05.030Z,16.81
2023-05-15T14:38:33.076Z,16.70
2023-05-15T14:41:01.866Z,16.57
2023-05-15T14:43:30.581Z,16.52
2023-05-15T14:45:58.096Z,16.52
2023-05-15T14:48:25.897Z,16.57
2023-05-15T14:51:01.898Z,16.58
2023-05-15T14:53:29.695Z,16.61
2023-05-15T14:55:59.049Z,16.70
2023-05-15T14:58:28.124Z,16.77
2023-05-15T15:00:59.523Z,16.85
2023-05-15T15:03:29.037Z,16.94
2023-05-15T15:05:58.160Z,16.95
2023-05-15T15:08:26.373Z,16.97
2023-05-15T15:13:41.705Z,16.78
2023-05-15T15:16:10.213Z,16.71
2023-05-15T15:18:38.236Z,16.65
2023-05-15T15:21:12.974Z,16.64
2023-05-15T15:23:41.577Z,16.64
2023-05-15T15:26:09.610Z,16.60
2023-05-15T15:28:37.711Z,16.59
2023-05-15T15:31:22.351Z,16.63
2023-05-15T15:33:50.314Z,16.69
2023-05-15T15:36:18.081Z,16.79
2023-05-15T15:38:46.780Z,16.84
2023-05-15T15:41:23.868Z,16.79
2023-05-15T15:43:51.860Z,16.77
2023-05-15T15:46:20.229Z,16.68
2023-05-15T15:48:48.242Z,16.60
2023-05-15T15:51:17.005Z,16.45
2023-05-15T15:53:44.803Z,16.43
2023-05-15T15:56:12.475Z,16.47
2023-05-15T15:58:40.077Z,16.55
2023-05-15T16:01:23.304Z,16.66
2023-05-15T16:03:51.189Z,16.74
2023-05-15T16:06:19.459Z,16.77
2023-05-15T16:08:47.099Z,16.82
2023-05-15T16:11:16.150Z,16.83
2023-05-15T16:13:44.149Z,16.79
2023-05-15T16:16:12.162Z,16.85
2023-05-15T16:18:40.009Z,16.86
2023-05-15T16:21:11.760Z,16.81
2023-05-15T16:23:42.016Z,16.83
2023-05-15T16:26:11.844Z,16.85
2023-05-15T16:28:40.097Z,16.86
2023-05-15T16:31:11.362Z,16.83
2023-05-15T16:33:39.280Z,16.78
2023-05-15T16:36:06.965Z,16.67
2023-05-15T16:38:34.722Z,16.60
2023-05-15T16:43:50.684Z,16.50
2023-05-15T16:46:23.094Z,16.46
2023-05-15T16:48:51.707Z,16.43
2023-05-15T16:51:19.905Z,16.34
2023-05-15T16:53:48.575Z,16.36
2023-05-15T16:56:16.314Z,16.35
2023-05-15T16:58:44.244Z,16.26
2023-05-15T17:01:43.257Z,16.26
2023-05-15T17:04:11.163Z,16.25
2023-05-15T17:06:38.858Z,16.24
2023-05-15T17:09:06.710Z,16.22
2023-05-15T17:11:34.396Z,16.16
2023-05-15T17:14:01.991Z,16.13
2023-05-15T17:16:29.876Z,16.13
2023-05-15T17:18:58.119Z,16.07
2023-05-15T17:21:26.417Z,16.18
2023-05-15T17:23:56.964Z,16.19
2023-05-15T17:26:24.724Z,16.19
2023-05-15T17:28:52.638Z,16.22
2023-05-15T17:31:21.894Z,16.33
2023-05-15T17:33:50.092Z,16.32
2023-05-15T17:36:17.825Z,16.35
2023-05-15T17:38:45.749Z,16.37
2023-05-15T17:41:17.656Z,16.35
2023-05-15T17:43:45.800Z,16.33
2023-05-15T17:46:13.841Z,16.31
2023-05-15T17:48:41.764Z,16.31
2023-05-15T17:51:10.282Z,16.26
2023-05-15T17:53:37.758Z,16.26
2023-05-15T17:56:05.807Z,16.10
2023-05-15T17:58:33.411Z,16.01
2023-05-15T18:01:09.049Z,16.01
2023-05-15T18:03:41.637Z,15.94
2023-05-15T18:06:09.204Z,15.91
2023-05-15T18:08:37.251Z,15.86
2023-05-15T18:11:17.600Z,15.85
2023-05-15T18:13:49.565Z,15.85
2023-05-15T18:16:18.407Z,15.90
2023-05-15T18:18:48.043Z,15.92
2023-05-15T18:21:16.478Z,15.98
2023-05-15T18:23:43.804Z,15.98
2023-05-15T18:26:11.478Z,15.97
2023-05-15T18:28:39.643Z,16.01
2023-05-15T18:31:07.412Z,16.00
2023-05-15T18:33:35.309Z,16.00
2023-05-15T18:36:04.647Z,16.01
2023-05-15T18:38:33.650Z,16.02
2023-05-15T18:41:01.165Z,15.99
2023-05-15T18:43:29.142Z,16.00
2023-05-15T18:45:56.605Z,16.02
2023-05-15T18:48:24.059Z,15.96
2023-05-15T18:50:53.525Z,15.91
2023-05-15T18:53:24.918Z,15.90
2023-05-15T18:55:52.659Z,15.89
2023-05-15T18:58:20.014Z,15.87
2023-05-15T19:00:48.492Z,15.80
2023-05-15T19:03:18.044Z,15.78
2023-05-15T19:05:45.546Z,15.75
2023-05-15T19:08:13.082Z,15.72
2023-05-15T19:10:40.527Z,15.69
2023-05-15T19:13:08.209Z,15.60
2023-05-15T19:15:35.730Z,15.56
2023-05-15T19:18:03.273Z,15.50
2023-05-15T19:20:31.325Z,15.47
2023-05-15T19:22:58.933Z,15.45
2023-05-15T19:25:26.788Z,15.41
2023-05-15T19:27:56.583Z,15.33
2023-05-15T19:30:24.233Z,15.31
2023-05-15T19:32:52.077Z,15.28
2023-05-15T19:35:20.557Z,15.26
2023-05-15T19:37:48.227Z,15.24
2023-05-15T19:40:16.040Z,15.19
2023-05-15T19:42:43.693Z,15.14
2023-05-15T19:45:11.870Z,15.09
2023-05-15T19:47:39.408Z,15.04
2023-05-15T19:50:07.997Z,15.02
2023-05-15T19:52:35.562Z,14.99
2023-05-15T19:55:03.095Z,14.99
2023-05-15T19:57:30.758Z,14.97
2023-05-15T19:59:58.420Z,14.96
2023-05-15T20:02:25.980Z,14.95
2023-05-15T20:04:53.629Z,14.98
2023-05-15T20:07:21.071Z,15.02
2023-05-15T20:09:48.427Z,15.04
2023-05-15T20:12:15.827Z,15.06
2023-05-15T20:14:48.716Z,15.04
2023-05-15T20:17:16.078Z,15.03
2023-05-15T20:19:43.643Z,14.98
2023-05-15T20:22:11.038Z,14.95
2023-05-15T20:24:39.214Z,14.95
2023-05-15T20:27:07.011Z,14.94
2023-05-15T20:29:34.198Z,14.97
2023-05-15T20:32:01.746Z,14.97
2023-05-15T20:34:30.813Z,14.96
2023-05-15T20:36:58.315Z,14.94
2023-05-15T20:39:26.204Z,14.93
2023-05-15T20:41:53.775Z,14.92
2023-05-15T20:44:21.354Z,14.90
2023-05-15T20:46:48.657Z,14.90
2023-05-15T20:49:16.200Z,14.89
2023-05-15T20:51:45.121Z,14.88
2023-05-15T20:54:12.708Z,14.89
2023-05-15T20:56:40.201Z,14.87
2023-05-15T20:59:07.759Z,14.82
2023-05-15T21:01:35.269Z,14.81
2023-05-15T21:04:03.031Z,14.79
2023-05-15T21:06:30.331Z,14.74
2023-05-15T21:08:58.095Z,14.70
2023-05-15T21:11:25.606Z,14.67
2023-05-15T21:13:52.922Z,14.64
2023-05-15T21:16:20.381Z,14.60
2023-05-15T21:18:49.372Z,14.60
2023-05-15T21:21:17.045Z,14.60
2023-05-15T21:23:44.676Z,14.60
2023-05-15T21:26:11.985Z,14.57
2023-05-15T21:28:39.391Z,14.54
2023-05-15T21:31:08.630Z,14.51
2023-05-15T21:33:36.632Z,14.46
2023-05-15T21:36:04.694Z,14.44
2023-05-15T21:38:32.210Z,14.43
2023-05-15T21:41:00.269Z,14.42
2023-05-15T21:43:27.641Z,14.39
2023-05-15T21:45:56.675Z,14.40
2023-05-15T21:48:24.337Z,14.37
2023-05-15T21:50:55.819Z,14.35
2023-05-15T21:53:23.483Z,14.29
2023-05-15T21:55:52.435Z,14.27
2023-05-15T21:58:19.692Z,14.24
2023-05-15T22:00:47.130Z,14.23
2023-05-15T22:03:14.710Z,14.22
2023-05-15T22:05:42.110Z,14.20
2023-05-15T22:08:09.492Z,14.18
2023-05-15T22:10:36.800Z,14.16
2023-05-15T22:13:04.247Z,14.13
2023-05-15T22:15:31.723Z,14.11
2023-05-15T22:18:00.866Z,14.09
2023-05-15T22:20:29.412Z,14.08
2023-05-15T22:22:56.737Z,14.07
2023-05-15T22:25:24.137Z,14.07
2023-05-15T22:27:51.434Z,14.08
2023-05-15T22:30:18.791Z,14.07
2023-05-15T22:32:46.506Z,14.04
2023-05-15T22:35:13.848Z,14.02
2023-05-15T22:37:42.376Z,13.99
2023-05-15T22:40:11.379Z,13.98
2023-05-15T22:42:38.615Z,13.94
2023-05-15T22:45:06.491Z,13.93
2023-05-15T22:47:34.217Z,13.93
2023-05-15T22:50:01.641Z,13.92
2023-05-15T22:52:28.960Z,13.90
2023-05-15T22:54:56.307Z,13.89
2023-05-15T22:57:23.694Z,13.88
2023-05-15T22:59:50.824Z,13.88
2023-05-15T23:02:17.997Z,13.90
2023-05-15T23:04:45.470Z,13.87
2023-05-15T23:07:12.729Z,13.85
2023-05-15T23:09:39.946Z,13.82
2023-05-15T23:12:07.681Z,13.81
2023-05-15T23:14:35.000Z,13.79
2023-05-15T23:17:02.304Z,13.78
2023-05-15T23:19:29.562Z,13.75
2023-05-15T23:21:57.031Z,13.77
2023-05-15T23:24:24.256Z,13.72
2023-05-15T23:26:51.478Z,13.69
2023-05-15T23:29:18.712Z,13.70
2023-05-15T23:31:46.026Z,13.63
2023-05-15T23:34:13.498Z,13.62
2023-05-15T23:36:40.747Z,13.60
2023-05-15T23:39:09.638Z,13.55
2023-05-15T23:41:36.835Z,13.53
2023-05-15T23:44:04.284Z,13.51
2023-05-15T23:46:31.532Z,13.51
2023-05-15T23:48:58.815Z,13.48
2023-05-15T23:51:26.131Z,13.43
2023-05-15T23:53:53.528Z,13.40
2023-05-15T23:56:21.083Z,13.38
2023-05-15T23:58:48.585Z,13.33
